Ana Sayfa
METAR-TAF:

METAR-TAF

Havaalanları :

New Braunfels Municipal Airport

New Braunfels, Teksas, Amerika Birleşik Devletleri

Enlem: 29-42-31N, Boylam: 098-02-43W, yükseklik: 197 m

Güncel hava durumu gözlemi

Rapor saat 14:58 UTC de 52 dakika önce yapıldı.
Rüzgar kuzeydoğudan 11 kt
Sıcaklık 5°C
Nem 93%
Basınç 1024 hPa
Görüş mesafesi: 4.8 km
1300 ft yükseklikte parçalı çok bulutlu
2000 ft yükseklikte çok bulutlu
hafif yağmur, Pus

METAR: KBAZ 141458Z 04011KT 3SM -RA BR BKN013 OVC020 05/04 A3023 RMK AO2 P0000 T00500039

Saat: 09:50 (15:50 UTC)


TAF: eksik

4.000'den fazla havaalanı için hava durumu gözlemleri ve tahminleri (METAR ve TAF raporları).

Kullanılabilir istasyonlar harita üzerinde sarı ve kırmızı noktalarla gösterilir.

İstasyonun adını görmek için fareyi noktanın üzerinde gezdirin.

Sonrasında hava gözlem ve tahminlerini görmek için tıklayın.

Haritayı değiştirmek için: yaklaştırmak için siyah artı işaretli yeşil düğmeye ve uzaklaştırmak için de eksi işaretli düğmeye hızla tıklayın; bitişik haritalar için yeşil okları kullanın.


METAR-TAF: